sensor_id;sensor_type;location;lat;lon;timestamp;pressure;altitude;pressure_sealevel;temperature;humidity
15382;BME280;7789;51.364;12.358;2023-03-14T00:04:28;98093.78;;;12.74;100.00
15382;BME280;7789;51.364;12.358;2023-03-14T00:09:31;98107.91;;;12.73;100.00
15382;BME280;7789;51.364;12.358;2023-03-14T00:14:36;98104.47;;;12.72;100.00
15382;BME280;7789;51.364;12.358;2023-03-14T00:19:39;98110.72;;;12.71;100.00
15382;BME280;7789;51.364;12.358;2023-03-14T00:24:43;98113.34;;;12.71;100.00
15382;BME280;7789;51.364;12.358;2023-03-14T00:29:48;98110.31;;;12.68;100.00
15382;BME280;7789;51.364;12.358;2023-03-14T00:34:51;98101.00;;;12.65;100.00
15382;BME280;7789;51.364;12.358;2023-03-14T00:39:54;98137.31;;;12.62;100.00
15382;BME280;7789;51.364;12.358;2023-03-14T00:44:59;98140.72;;;12.62;100.00
15382;BME280;7789;51.364;12.358;2023-03-14T00:50:02;98118.34;;;12.60;100.00
15382;BME280;7789;51.364;12.358;2023-03-14T00:55:07;98120.13;;;12.59;100.00
15382;BME280;7789;51.364;12.358;2023-03-14T01:00:13;98117.50;;;12.59;100.00
15382;BME280;7789;51.364;12.358;2023-03-14T01:05:16;98124.78;;;12.57;100.00
15382;BME280;7789;51.364;12.358;2023-03-14T01:10:20;98146.91;;;12.55;100.00
15382;BME280;7789;51.364;12.358;2023-03-14T01:15:25;98150.53;;;12.54;100.00
15382;BME280;7789;51.364;12.358;2023-03-14T01:20:28;98160.22;;;12.53;100.00
15382;BME280;7789;51.364;12.358;2023-03-14T01:25:31;98162.03;;;12.53;100.00
15382;BME280;7789;51.364;12.358;2023-03-14T01:30:36;98157.41;;;12.55;100.00
15382;BME280;7789;51.364;12.358;2023-03-14T01:35:39;98145.31;;;12.54;100.00
15382;BME280;7789;51.364;12.358;2023-03-14T01:40:45;98151.16;;;12.56;100.00
15382;BME280;7789;51.364;12.358;2023-03-14T01:46:18;98140.94;;;12.61;100.00
15382;BME280;7789;51.364;12.358;2023-03-14T01:51:28;98155.81;;;12.60;100.00
15382;BME280;7789;51.364;12.358;2023-03-14T01:56:32;98146.97;;;12.61;100.00
15382;BME280;7789;51.364;12.358;2023-03-14T02:01:41;98136.31;;;12.63;100.00
15382;BME280;7789;51.364;12.358;2023-03-14T02:06:51;98127.00;;;12.60;100.00
15382;BME280;7789;51.364;12.358;2023-03-14T02:11:55;98115.28;;;12.56;100.00
15382;BME280;7789;51.364;12.358;2023-03-14T02:17:03;98111.22;;;12.54;100.00
15382;BME280;7789;51.364;12.358;2023-03-14T02:22:10;98102.94;;;12.50;100.00
15382;BME280;7789;51.364;12.358;2023-03-14T02:27:19;98102.31;;;12.48;100.00
15382;BME280;7789;51.364;12.358;2023-03-14T02:32:26;98098.47;;;12.44;100.00
15382;BME280;7789;51.364;12.358;2023-03-14T02:37:35;98063.63;;;12.44;100.00
15382;BME280;7789;51.364;12.358;2023-03-14T02:42:41;98061.19;;;12.42;100.00
15382;BME280;7789;51.364;12.358;2023-03-14T02:47:48;98066.59;;;12.41;100.00
15382;BME280;7789;51.364;12.358;2023-03-14T02:52:52;98058.13;;;12.39;100.00
15382;BME280;7789;51.364;12.358;2023-03-14T02:57:57;98060.34;;;12.35;100.00
15382;BME280;7789;51.364;12.358;2023-03-14T03:03:01;98072.63;;;12.35;100.00
15382;BME280;7789;51.364;12.358;2023-03-14T03:08:04;98064.16;;;12.33;100.00
15382;BME280;7789;51.364;12.358;2023-03-14T03:13:09;98062.97;;;12.35;100.00
15382;BME280;7789;51.364;12.358;2023-03-14T03:18:12;98077.34;;;12.46;100.00
15382;BME280;7789;51.364;12.358;2023-03-14T03:23:16;98088.47;;;12.54;100.00
15382;BME280;7789;51.364;12.358;2023-03-14T03:28:20;98070.94;;;12.61;100.00
15382;BME280;7789;51.364;12.358;2023-03-14T03:33:24;98058.88;;;12.67;100.00
15382;BME280;7789;51.364;12.358;2023-03-14T03:38:27;98047.59;;;12.73;100.00
15382;BME280;7789;51.364;12.358;2023-03-14T03:43:31;98041.97;;;12.76;100.00
15382;BME280;7789;51.364;12.358;2023-03-14T03:48:35;98033.72;;;12.79;99.13
15382;BME280;7789;51.364;12.358;2023-03-14T03:53:39;98020.00;;;12.83;98.31
15382;BME280;7789;51.364;12.358;2023-03-14T03:58:43;98017.38;;;12.77;96.94
15382;BME280;7789;51.364;12.358;2023-03-14T04:03:46;98022.59;;;12.70;96.43
15382;BME280;7789;51.364;12.358;2023-03-14T04:08:50;98015.75;;;12.69;95.97
15382;BME280;7789;51.364;12.358;2023-03-14T04:13:55;98016.34;;;12.65;95.17
15382;BME280;7789;51.364;12.358;2023-03-14T04:18:58;98019.34;;;12.62;95.15
15382;BME280;7789;51.364;12.358;2023-03-14T04:24:01;98014.69;;;12.57;95.38
15382;BME280;7789;51.364;12.358;2023-03-14T04:29:06;98007.88;;;12.69;94.30
15382;BME280;7789;51.364;12.358;2023-03-14T04:34:09;97997.41;;;12.76;93.95
15382;BME280;7789;51.364;12.358;2023-03-14T04:39:13;97996.19;;;12.78;93.67
15382;BME280;7789;51.364;12.358;2023-03-14T04:44:17;97996.41;;;12.83;93.73
15382;BME280;7789;51.364;12.358;2023-03-14T04:49:21;97979.47;;;12.86;93.62
15382;BME280;7789;51.364;12.358;2023-03-14T04:54:24;97974.44;;;12.90;93.66
15382;BME280;7789;51.364;12.358;2023-03-14T04:59:29;97967.59;;;12.89;93.69
15382;BME280;7789;51.364;12.358;2023-03-14T05:04:32;97974.66;;;12.89;93.43
15382;BME280;7789;51.364;12.358;2023-03-14T05:09:36;97969.59;;;12.88;93.26
15382;BME280;7789;51.364;12.358;2023-03-14T05:14:45;97950.44;;;12.81;93.35
15382;BME280;7789;51.364;12.358;2023-03-14T05:20:05;97961.06;;;12.66;93.61
15382;BME280;7789;51.364;12.358;2023-03-14T05:25:14;97968.31;;;12.58;93.21
15382;BME280;7789;51.364;12.358;2023-03-14T05:30:19;97970.09;;;12.51;94.06
15382;BME280;7789;51.364;12.358;2023-03-14T05:35:22;97957.19;;;12.49;93.88
15382;BME280;7789;51.364;12.358;2023-03-14T05:40:25;97961.81;;;12.47;94.44
15382;BME280;7789;51.364;12.358;2023-03-14T05:45:30;97957.81;;;12.45;94.09
15382;BME280;7789;51.364;12.358;2023-03-14T05:50:36;97956.75;;;12.39;93.90
15382;BME280;7789;51.364;12.358;2023-03-14T05:55:40;97958.16;;;12.42;93.92
15382;BME280;7789;51.364;12.358;2023-03-14T06:00:44;97972.72;;;12.51;93.36
15382;BME280;7789;51.364;12.358;2023-03-14T06:05:49;97976.59;;;12.61;93.56
15382;BME280;7789;51.364;12.358;2023-03-14T06:10:52;97982.69;;;12.68;93.59
15382;BME280;7789;51.364;12.358;2023-03-14T06:15:57;97975.03;;;12.73;92.86
15382;BME280;7789;51.364;12.358;2023-03-14T06:21:00;97955.47;;;12.82;91.89
15382;BME280;7789;51.364;12.358;2023-03-14T06:26:06;97951.44;;;12.80;91.72
15382;BME280;7789;51.364;12.358;2023-03-14T06:31:10;97960.69;;;12.76;91.30
15382;BME280;7789;51.364;12.358;2023-03-14T06:36:24;97959.47;;;12.72;91.27
15382;BME280;7789;51.364;12.358;2023-03-14T06:41:27;97960.47;;;12.71;90.88
15382;BME280;7789;51.364;12.358;2023-03-14T06:46:32;97982.06;;;12.73;90.85
15382;BME280;7789;51.364;12.358;2023-03-14T06:51:35;97991.16;;;12.77;91.03
15382;BME280;7789;51.364;12.358;2023-03-14T06:56:38;98002.88;;;12.81;90.81
15382;BME280;7789;51.364;12.358;2023-03-14T07:01:43;98002.06;;;12.87;90.94
15382;BME280;7789;51.364;12.358;2023-03-14T07:06:56;98004.34;;;12.96;90.37
15382;BME280;7789;51.364;12.358;2023-03-14T07:12:00;97997.94;;;13.05;90.04
15382;BME280;7789;51.364;12.358;2023-03-14T07:17:04;97976.31;;;13.16;88.63
15382;BME280;7789;51.364;12.358;2023-03-14T07:22:07;97960.81;;;13.34;87.43
15382;BME280;7789;51.364;12.358;2023-03-14T07:27:11;97947.91;;;13.45;86.30
15382;BME280;7789;51.364;12.358;2023-03-14T07:32:15;97951.72;;;13.56;84.85
15382;BME280;7789;51.364;12.358;2023-03-14T07:37:19;97945.63;;;13.75;84.00
15382;BME280;7789;51.364;12.358;2023-03-14T07:42:22;97958.31;;;13.97;82.68
15382;BME280;7789;51.364;12.358;2023-03-14T07:47:27;97965.53;;;14.15;80.82
15382;BME280;7789;51.364;12.358;2023-03-14T07:52:30;97961.72;;;14.24;80.48
15382;BME280;7789;51.364;12.358;2023-03-14T07:57:33;97978.34;;;14.62;79.25
15382;BME280;7789;51.364;12.358;2023-03-14T08:02:38;97979.34;;;14.61;77.97
15382;BME280;7789;51.364;12.358;2023-03-14T08:07:44;97980.31;;;14.73;77.46
15382;BME280;7789;51.364;12.358;2023-03-14T08:12:49;97970.75;;;14.78;77.58
15382;BME280;7789;51.364;12.358;2023-03-14T08:18:01;97967.03;;;15.23;75.68
15382;BME280;7789;51.364;12.358;2023-03-14T08:23:10;97954.50;;;15.49;74.25
15382;BME280;7789;51.364;12.358;2023-03-14T08:28:18;97959.72;;;15.25;74.39
15382;BME280;7789;51.364;12.358;2023-03-14T08:33:27;97959.81;;;15.43;73.06
15382;BME280;7789;51.364;12.358;2023-03-14T08:38:36;97952.56;;;15.63;72.83
15382;BME280;7789;51.364;12.358;2023-03-14T08:43:40;97955.22;;;15.81;71.53
15382;BME280;7789;51.364;12.358;2023-03-14T08:48:47;97946.03;;;15.90;71.26
15382;BME280;7789;51.364;12.358;2023-03-14T08:53:54;97945.91;;;16.03;70.93
15382;BME280;7789;51.364;12.358;2023-03-14T08:59:01;97947.56;;;16.33;69.82
15382;BME280;7789;51.364;12.358;2023-03-14T09:04:43;97950.47;;;16.25;68.19
15382;BME280;7789;51.364;12.358;2023-03-14T09:09:48;97958.91;;;16.34;68.27
15382;BME280;7789;51.364;12.358;2023-03-14T09:14:56;97953.72;;;16.27;66.89
15382;BME280;7789;51.364;12.358;2023-03-14T09:20:10;97952.03;;;16.33;66.62
15382;BME280;7789;51.364;12.358;2023-03-14T09:25:18;97964.38;;;16.39;67.16
15382;BME280;7789;51.364;12.358;2023-03-14T09:30:26;97955.69;;;16.32;66.18
15382;BME280;7789;51.364;12.358;2023-03-14T09:35:39;97957.28;;;16.33;66.88
15382;BME280;7789;51.364;12.358;2023-03-14T09:40:45;97963.59;;;16.32;67.06
15382;BME280;7789;51.364;12.358;2023-03-14T09:45:52;97960.44;;;16.23;66.68
15382;BME280;7789;51.364;12.358;2023-03-14T09:51:01;97968.09;;;16.31;67.35
15382;BME280;7789;51.364;12.358;2023-03-14T09:56:12;97971.31;;;16.33;67.38
15382;BME280;7789;51.364;12.358;2023-03-14T10:01:25;97971.75;;;16.30;66.71
15382;BME280;7789;51.364;12.358;2023-03-14T10:06:35;97968.66;;;16.15;66.01
15382;BME280;7789;51.364;12.358;2023-03-14T10:11:42;97974.66;;;16.04;66.02
15382;BME280;7789;51.364;12.358;2023-03-14T10:16:46;97971.72;;;15.94;67.03
15382;BME280;7789;51.364;12.358;2023-03-14T10:21:53;97970.63;;;15.84;67.13
15382;BME280;7789;51.364;12.358;2023-03-14T10:27:01;97969.28;;;15.75;66.64
15382;BME280;7789;51.364;12.358;2023-03-14T10:32:10;97980.16;;;15.60;67.37
15382;BME280;7789;51.364;12.358;2023-03-14T10:37:27;97985.38;;;15.67;67.05
15382;BME280;7789;51.364;12.358;2023-03-14T10:42:33;97989.53;;;15.74;67.10
15382;BME280;7789;51.364;12.358;2023-03-14T10:47:48;97991.09;;;15.82;66.79
15382;BME280;7789;51.364;12.358;2023-03-14T10:52:56;97983.91;;;15.71;66.35
15382;BME280;7789;51.364;12.358;2023-03-14T10:58:04;97992.88;;;15.63;67.08
15382;BME280;7789;51.364;12.358;2023-03-14T11:03:10;97990.69;;;15.60;66.89
15382;BME280;7789;51.364;12.358;2023-03-14T11:08:25;97988.94;;;15.48;67.56
15382;BME280;7789;51.364;12.358;2023-03-14T11:13:35;97992.84;;;15.45;67.63
15382;BME280;7789;51.364;12.358;2023-03-14T11:18:56;97990.78;;;15.47;68.04
15382;BME280;7789;51.364;12.358;2023-03-14T11:24:21;97986.25;;;15.54;68.10
15382;BME280;7789;51.364;12.358;2023-03-14T11:29:39;97979.22;;;15.73;67.90
15382;BME280;7789;51.364;12.358;2023-03-14T11:34:50;97980.78;;;15.80;67.96
15382;BME280;7789;51.364;12.358;2023-03-14T11:40:04;97978.00;;;15.75;67.92
15382;BME280;7789;51.364;12.358;2023-03-14T11:45:17;97978.41;;;15.72;68.00
15382;BME280;7789;51.364;12.358;2023-03-14T11:50:26;97978.94;;;15.81;68.70
15382;BME280;7789;51.364;12.358;2023-03-14T11:55:56;97975.00;;;15.90;68.77
15382;BME280;7789;51.364;12.358;2023-03-14T12:01:06;97965.97;;;16.04;68.96
15382;BME280;7789;51.364;12.358;2023-03-14T12:06:16;97965.97;;;16.04;67.82
15382;BME280;7789;51.364;12.358;2023-03-14T12:11:33;97959.94;;;15.97;68.41
15382;BME280;7789;51.364;12.358;2023-03-14T12:16:41;97945.22;;;16.07;68.18
15382;BME280;7789;51.364;12.358;2023-03-14T12:21:52;97943.47;;;16.19;68.24
15382;BME280;7789;51.364;12.358;2023-03-14T12:27:04;97957.09;;;16.16;68.24
15382;BME280;7789;51.364;12.358;2023-03-14T12:32:23;97967.91;;;15.90;74.62
15382;BME280;7789;51.364;12.358;2023-03-14T12:37:34;97963.38;;;15.79;75.78
15382;BME280;7789;51.364;12.358;2023-03-14T12:42:58;97957.34;;;15.90;75.69
15382;BME280;7789;51.364;12.358;2023-03-14T12:48:10;97938.13;;;15.90;74.94
15382;BME280;7789;51.364;12.358;2023-03-14T12:59:23;97911.75;;;15.90;72.63
15382;BME280;7789;51.364;12.358;2023-03-14T13:04:34;97909.34;;;15.88;72.35
15382;BME280;7789;51.364;12.358;2023-03-14T13:10:03;97894.94;;;15.91;71.09
15382;BME280;7789;51.364;12.358;2023-03-14T13:15:19;97892.59;;;16.01;70.24
15382;BME280;7789;51.364;12.358;2023-03-14T13:20:37;97892.28;;;16.09;69.51
15382;BME280;7789;51.364;12.358;2023-03-14T13:25:45;97894.25;;;16.31;69.49
15382;BME280;7789;51.364;12.358;2023-03-14T13:30:58;97893.22;;;16.32;68.10
15382;BME280;7789;51.364;12.358;2023-03-14T13:36:09;97887.41;;;16.60;67.32
15382;BME280;7789;51.364;12.358;2023-03-14T13:41:17;97884.22;;;16.69;66.63
15382;BME280;7789;51.364;12.358;2023-03-14T13:46:29;97886.16;;;16.62;65.85
15382;BME280;7789;51.364;12.358;2023-03-14T13:51:49;97874.91;;;16.67;65.41
15382;BME280;7789;51.364;12.358;2023-03-14T13:57:01;97890.50;;;16.57;64.51
15382;BME280;7789;51.364;12.358;2023-03-14T14:02:22;97882.03;;;16.66;64.36
15382;BME280;7789;51.364;12.358;2023-03-14T14:07:26;97876.38;;;16.63;64.36
15382;BME280;7789;51.364;12.358;2023-03-14T14:12:34;97882.13;;;16.60;63.98
15382;BME280;7789;51.364;12.358;2023-03-14T14:17:45;97890.34;;;16.34;63.58
15382;BME280;7789;51.364;12.358;2023-03-14T14:22:53;97887.56;;;16.29;64.15
15382;BME280;7789;51.364;12.358;2023-03-14T14:28:17;97895.13;;;16.25;63.63
15382;BME280;7789;51.364;12.358;2023-03-14T14:33:24;97899.03;;;16.23;64.73
15382;BME280;7789;51.364;12.358;2023-03-14T14:38:32;97899.09;;;16.16;64.09
15382;BME280;7789;51.364;12.358;2023-03-14T14:43:38;97890.47;;;16.09;63.99
15382;BME280;7789;51.364;12.358;2023-03-14T14:48:45;97899.38;;;16.08;65.24
15382;BME280;7789;51.364;12.358;2023-03-14T14:54:03;97914.91;;;15.98;65.70
15382;BME280;7789;51.364;12.358;2023-03-14T14:59:20;97951.34;;;15.83;67.21
15382;BME280;7789;51.364;12.358;2023-03-14T15:04:27;97971.91;;;15.50;73.17
15382;BME280;7789;51.364;12.358;2023-03-14T15:09:35;98017.47;;;15.20;75.16
15382;BME280;7789;51.364;12.358;2023-03-14T15:14:42;98089.19;;;14.65;76.89
15382;BME280;7789;51.364;12.358;2023-03-14T15:19:51;98149.63;;;13.68;78.87
15382;BME280;7789;51.364;12.358;2023-03-14T15:25:00;98187.56;;;13.05;80.87
15382;BME280;7789;51.364;12.358;2023-03-14T15:30:10;98221.13;;;12.55;83.24
15382;BME280;7789;51.364;12.358;2023-03-14T15:35:47;98260.44;;;12.13;85.18
15382;BME280;7789;51.364;12.358;2023-03-14T15:40:53;98295.81;;;11.67;84.85
15382;BME280;7789;51.364;12.358;2023-03-14T15:45:58;98323.75;;;11.23;85.44
15382;BME280;7789;51.364;12.358;2023-03-14T15:51:06;98351.06;;;10.92;85.94
15382;BME280;7789;51.364;12.358;2023-03-14T15:56:12;98389.25;;;10.56;86.80
15382;BME280;7789;51.364;12.358;2023-03-14T16:01:18;98433.81;;;10.24;87.45
15382;BME280;7789;51.364;12.358;2023-03-14T16:06:53;98453.63;;;9.95;87.89
15382;BME280;7789;51.364;12.358;2023-03-14T16:11:57;98494.19;;;9.67;88.89
15382;BME280;7789;51.364;12.358;2023-03-14T16:17:00;98516.84;;;9.58;89.68
15382;BME280;7789;51.364;12.358;2023-03-14T16:22:15;98551.72;;;9.33;90.39
15382;BME280;7789;51.364;12.358;2023-03-14T16:27:22;98568.97;;;9.11;91.09
15382;BME280;7789;51.364;12.358;2023-03-14T16:32:34;98605.69;;;8.84;91.55
15382;BME280;7789;51.364;12.358;2023-03-14T16:37:50;98657.25;;;8.64;91.92
15382;BME280;7789;51.364;12.358;2023-03-14T16:43:18;98659.31;;;8.53;92.85
15382;BME280;7789;51.364;12.358;2023-03-14T16:48:23;98704.53;;;8.26;93.02
15382;BME280;7789;51.364;12.358;2023-03-14T16:53:30;98717.00;;;8.05;94.26
15382;BME280;7789;51.364;12.358;2023-03-14T16:58:35;98750.75;;;7.80;94.30
15382;BME280;7789;51.364;12.358;2023-03-14T17:03:41;98780.31;;;7.61;94.84
15382;BME280;7789;51.364;12.358;2023-03-14T17:09:04;98805.47;;;7.43;96.08
15382;BME280;7789;51.364;12.358;2023-03-14T17:14:09;98827.94;;;7.35;96.87
15382;BME280;7789;51.364;12.358;2023-03-14T17:19:17;98857.75;;;7.31;96.36
15382;BME280;7789;51.364;12.358;2023-03-14T17:24:23;98877.06;;;7.28;98.44
15382;BME280;7789;51.364;12.358;2023-03-14T17:29:28;98909.34;;;7.26;97.87
15382;BME280;7789;51.364;12.358;2023-03-14T17:34:35;98921.09;;;7.21;99.77
15382;BME280;7789;51.364;12.358;2023-03-14T17:39:44;98935.22;;;7.18;99.33
15382;BME280;7789;51.364;12.358;2023-03-14T17:44:59;98959.13;;;7.22;100.00
15382;BME280;7789;51.364;12.358;2023-03-14T17:50:13;98975.84;;;7.19;100.00
15382;BME280;7789;51.364;12.358;2023-03-14T17:55:23;98993.19;;;7.19;100.00
15382;BME280;7789;51.364;12.358;2023-03-14T18:00:32;99013.19;;;7.18;100.00
15382;BME280;7789;51.364;12.358;2023-03-14T18:05:40;99023.97;;;7.14;100.00
15382;BME280;7789;51.364;12.358;2023-03-14T18:10:54;99028.50;;;7.12;100.00
15382;BME280;7789;51.364;12.358;2023-03-14T18:15:58;99043.91;;;7.04;100.00
15382;BME280;7789;51.364;12.358;2023-03-14T18:21:06;99077.28;;;6.99;100.00
15382;BME280;7789;51.364;12.358;2023-03-14T18:26:14;99089.44;;;6.89;100.00
15382;BME280;7789;51.364;12.358;2023-03-14T18:31:18;99092.16;;;6.78;100.00
15382;BME280;7789;51.364;12.358;2023-03-14T18:36:27;99108.09;;;6.64;100.00
15382;BME280;7789;51.364;12.358;2023-03-14T18:41:37;99126.25;;;6.54;100.00
15382;BME280;7789;51.364;12.358;2023-03-14T18:46:42;99129.19;;;6.40;100.00
15382;BME280;7789;51.364;12.358;2023-03-14T18:51:51;99139.63;;;6.29;100.00
15382;BME280;7789;51.364;12.358;2023-03-14T18:57:00;99154.34;;;6.19;100.00
15382;BME280;7789;51.364;12.358;2023-03-14T19:02:08;99167.38;;;6.08;100.00
15382;BME280;7789;51.364;12.358;2023-03-14T19:07:20;99182.75;;;6.00;100.00
15382;BME280;7789;51.364;12.358;2023-03-14T19:12:26;99198.78;;;5.94;100.00
15382;BME280;7789;51.364;12.358;2023-03-14T19:17:31;99203.69;;;5.88;100.00
15382;BME280;7789;51.364;12.358;2023-03-14T19:22:36;99221.00;;;5.87;100.00
15382;BME280;7789;51.364;12.358;2023-03-14T19:27:53;99238.09;;;5.90;100.00
15382;BME280;7789;51.364;12.358;2023-03-14T19:33:01;99261.44;;;5.90;100.00
15382;BME280;7789;51.364;12.358;2023-03-14T19:38:05;99272.41;;;5.82;100.00
15382;BME280;7789;51.364;12.358;2023-03-14T19:43:16;99285.25;;;5.73;100.00
15382;BME280;7789;51.364;12.358;2023-03-14T19:48:21;99293.06;;;5.62;100.00
15382;BME280;7789;51.364;12.358;2023-03-14T19:53:32;99310.25;;;5.52;100.00
15382;BME280;7789;51.364;12.358;2023-03-14T19:58:43;99322.91;;;5.45;100.00
15382;BME280;7789;51.364;12.358;2023-03-14T20:03:48;99341.94;;;5.44;100.00
15382;BME280;7789;51.364;12.358;2023-03-14T20:08:52;99340.88;;;5.36;100.00
15382;BME280;7789;51.364;12.358;2023-03-14T20:14:02;99358.56;;;5.31;100.00
15382;BME280;7789;51.364;12.358;2023-03-14T20:19:06;99372.94;;;5.24;100.00
15382;BME280;7789;51.364;12.358;2023-03-14T20:24:15;99376.22;;;5.15;100.00
15382;BME280;7789;51.364;12.358;2023-03-14T20:29:24;99392.00;;;5.12;100.00
15382;BME280;7789;51.364;12.358;2023-03-14T20:34:28;99405.28;;;5.08;100.00
15382;BME280;7789;51.364;12.358;2023-03-14T20:39:36;99400.56;;;5.02;100.00
15382;BME280;7789;51.364;12.358;2023-03-14T20:44:44;99413.84;;;4.97;100.00
15382;BME280;7789;51.364;12.358;2023-03-14T20:49:49;99422.88;;;4.92;100.00
15382;BME280;7789;51.364;12.358;2023-03-14T20:54:55;99425.13;;;4.85;100.00
15382;BME280;7789;51.364;12.358;2023-03-14T21:00:04;99434.16;;;4.80;100.00
15382;BME280;7789;51.364;12.358;2023-03-14T21:05:10;99440.63;;;4.74;100.00
15382;BME280;7789;51.364;12.358;2023-03-14T21:10:14;99455.66;;;4.69;100.00
15382;BME280;7789;51.364;12.358;2023-03-14T21:15:22;99460.94;;;4.68;100.00
15382;BME280;7789;51.364;12.358;2023-03-14T21:20:29;99473.25;;;4.64;99.28
15382;BME280;7789;51.364;12.358;2023-03-14T21:25:33;99470.28;;;4.58;100.00
15382;BME280;7789;51.364;12.358;2023-03-14T21:30:45;99479.34;;;4.52;99.07
15382;BME280;7789;51.364;12.358;2023-03-14T21:35:56;99485.66;;;4.48;99.20
15382;BME280;7789;51.364;12.358;2023-03-14T21:41:04;99492.13;;;4.43;99.11
15382;BME280;7789;51.364;12.358;2023-03-14T21:46:14;99499.53;;;4.47;98.61
15382;BME280;7789;51.364;12.358;2023-03-14T21:51:18;99504.69;;;4.47;98.29
15382;BME280;7789;51.364;12.358;2023-03-14T21:56:23;99503.88;;;4.47;98.03
15382;BME280;7789;51.364;12.358;2023-03-14T22:01:36;99511.75;;;4.45;97.88
15382;BME280;7789;51.364;12.358;2023-03-14T22:06:43;99519.00;;;4.40;97.29
15382;BME280;7789;51.364;12.358;2023-03-14T22:11:57;99535.16;;;4.44;97.44
15382;BME280;7789;51.364;12.358;2023-03-14T22:17:09;99548.47;;;4.50;97.97
15382;BME280;7789;51.364;12.358;2023-03-14T22:22:13;99554.47;;;4.51;96.48
15382;BME280;7789;51.364;12.358;2023-03-14T22:27:26;99555.09;;;4.54;97.53
15382;BME280;7789;51.364;12.358;2023-03-14T22:32:37;99570.41;;;4.57;97.27
15382;BME280;7789;51.364;12.358;2023-03-14T22:37:42;99583.59;;;4.65;96.18
15382;BME280;7789;51.364;12.358;2023-03-14T22:42:47;99594.25;;;4.73;95.75
15382;BME280;7789;51.364;12.358;2023-03-14T22:47:56;99606.03;;;4.77;95.70
15382;BME280;7789;51.364;12.358;2023-03-14T22:53:04;99606.53;;;4.82;94.85
15382;BME280;7789;51.364;12.358;2023-03-14T22:58:09;99616.81;;;4.84;95.16
15382;BME280;7789;51.364;12.358;2023-03-14T23:03:16;99625.19;;;4.87;94.98
15382;BME280;7789;51.364;12.358;2023-03-14T23:08:20;99631.41;;;4.85;95.38
15382;BME280;7789;51.364;12.358;2023-03-14T23:13:25;99627.97;;;4.84;96.42
15382;BME280;7789;51.364;12.358;2023-03-14T23:18:36;99634.59;;;4.88;96.96
15382;BME280;7789;51.364;12.358;2023-03-14T23:23:44;99645.69;;;4.90;97.08
15382;BME280;7789;51.364;12.358;2023-03-14T23:28:50;99652.59;;;4.90;96.45
15382;BME280;7789;51.364;12.358;2023-03-14T23:34:00;99651.88;;;4.88;97.09
15382;BME280;7789;51.364;12.358;2023-03-14T23:39:07;99657.19;;;4.86;96.61
15382;BME280;7789;51.364;12.358;2023-03-14T23:44:14;99662.97;;;4.90;96.33
15382;BME280;7789;51.364;12.358;2023-03-14T23:49:22;99667.41;;;4.88;95.75
15382;BME280;7789;51.364;12.358;2023-03-14T23:54:29;99664.84;;;4.88;95.01
15382;BME280;7789;51.364;12.358;2023-03-14T23:59:35;99684.19;;;4.82;94.79
